createdAt,value
2023-02-27T00:01:24.413Z,7.63
2023-02-27T00:03:52.236Z,11.10
2023-02-27T00:06:19.965Z,7.10
2023-02-27T00:08:48.344Z,10.03
2023-02-27T00:11:16.022Z,11.50
2023-02-27T00:13:45.036Z,7.72
2023-02-27T00:16:13.136Z,6.03
2023-02-27T00:18:42.045Z,9.80
2023-02-27T00:21:12.344Z,7.40
2023-02-27T00:23:40.521Z,9.20
2023-02-27T00:26:08.491Z,7.40
2023-02-27T00:28:36.546Z,8.32
2023-02-27T00:31:05.744Z,6.60
2023-02-27T00:33:33.387Z,9.47
2023-02-27T00:36:01.763Z,6.30
2023-02-27T00:38:29.777Z,10.00
2023-02-27T00:40:57.417Z,6.43
2023-02-27T00:43:25.111Z,8.00
2023-02-27T00:45:58.449Z,8.57
2023-02-27T00:48:27.604Z,9.35
2023-02-27T00:50:55.204Z,12.35
2023-02-27T00:53:23.090Z,7.88
2023-02-27T00:55:50.918Z,6.30
2023-02-27T00:58:18.430Z,8.73
2023-02-27T01:00:46.131Z,5.55
2023-02-27T01:03:13.850Z,6.60
2023-02-27T01:05:42.729Z,6.63
2023-02-27T01:08:10.306Z,5.80
2023-02-27T01:10:38.359Z,7.47
2023-02-27T01:13:05.877Z,7.70
2023-02-27T01:15:33.372Z,5.78
2023-02-27T01:18:01.037Z,11.13
2023-02-27T01:20:28.727Z,7.75
2023-02-27T01:23:00.305Z,7.53
2023-02-27T01:25:28.143Z,7.43
2023-02-27T01:27:56.638Z,8.30
2023-02-27T01:30:24.266Z,6.50
2023-02-27T01:32:51.895Z,8.27
2023-02-27T01:35:19.837Z,6.13
2023-02-27T01:37:47.550Z,7.07
2023-02-27T01:40:16.754Z,7.88
2023-02-27T01:42:44.431Z,6.85
2023-02-27T01:45:15.028Z,8.88
2023-02-27T01:47:43.897Z,7.67
2023-02-27T01:50:12.052Z,8.00
2023-02-27T01:52:40.361Z,6.28
2023-02-27T01:55:09.176Z,8.00
2023-02-27T01:57:38.348Z,7.45
2023-02-27T02:00:07.011Z,7.13
2023-02-27T02:02:37.351Z,7.50
2023-02-27T02:05:05.549Z,7.10
2023-02-27T02:07:33.322Z,7.22
2023-02-27T02:10:01.274Z,11.57
2023-02-27T02:12:29.913Z,7.10
2023-02-27T02:14:58.799Z,6.50
2023-02-27T02:17:30.741Z,5.95
2023-02-27T02:20:16.067Z,6.13
2023-02-27T02:22:56.844Z,5.95
2023-02-27T02:25:46.661Z,8.60
2023-02-27T02:28:19.147Z,7.43
2023-02-27T02:31:01.590Z,8.25
2023-02-27T02:33:52.085Z,6.13
2023-02-27T02:36:38.816Z,5.47
2023-02-27T02:39:21.762Z,7.47
2023-02-27T02:41:57.077Z,7.30
2023-02-27T02:44:28.985Z,6.55
2023-02-27T02:47:02.992Z,6.03
2023-02-27T02:49:34.298Z,7.03
2023-02-27T02:52:03.620Z,5.63
2023-02-27T02:54:39.324Z,6.20
2023-02-27T02:57:16.769Z,5.82
2023-02-27T02:59:48.974Z,7.07
2023-02-27T03:02:18.251Z,5.95
2023-02-27T03:04:47.987Z,6.07
2023-02-27T03:07:18.476Z,5.20
2023-02-27T03:09:49.270Z,3.75
2023-02-27T03:12:19.237Z,5.97
2023-02-27T03:14:48.617Z,5.40
2023-02-27T03:17:18.899Z,11.33
2023-02-27T03:19:50.049Z,6.63
2023-02-27T03:22:20.500Z,5.13
2023-02-27T03:24:50.701Z,11.57
2023-02-27T03:27:19.295Z,7.82
2023-02-27T03:29:50.767Z,5.93
2023-02-27T03:32:19.966Z,6.45
2023-02-27T03:34:48.046Z,8.65
2023-02-27T03:37:21.332Z,6.40
2023-02-27T03:39:51.536Z,10.13
2023-02-27T03:42:22.931Z,8.87
2023-02-27T03:44:55.350Z,6.18
2023-02-27T03:47:23.241Z,4.75
2023-02-27T03:49:52.192Z,7.13
2023-02-27T03:52:20.843Z,6.30
2023-02-27T03:55:00.257Z,8.63
2023-02-27T03:57:28.105Z,7.00
2023-02-27T03:59:55.652Z,8.27
2023-02-27T04:02:23.409Z,6.05
2023-02-27T04:04:51.353Z,4.78
2023-02-27T04:07:22.593Z,7.17
2023-02-27T04:10:09.560Z,7.43
2023-02-27T04:12:46.242Z,5.55
2023-02-27T04:15:19.081Z,6.10
2023-02-27T04:17:52.619Z,9.38
2023-02-27T04:20:36.577Z,7.67
2023-02-27T04:23:05.997Z,7.63
2023-02-27T04:25:42.434Z,8.80
2023-02-27T04:28:17.383Z,8.18
2023-02-27T04:30:55.546Z,6.25
2023-02-27T04:33:26.666Z,7.37
2023-02-27T04:35:55.692Z,7.13
2023-02-27T04:38:27.260Z,8.88
2023-02-27T04:41:01.709Z,6.55
2023-02-27T04:43:29.974Z,6.78
2023-02-27T04:45:59.509Z,6.50
2023-02-27T04:48:28.447Z,5.78
2023-02-27T04:50:58.762Z,9.90
2023-02-27T04:53:29.145Z,6.82
2023-02-27T04:56:00.844Z,7.40
2023-02-27T04:58:30.680Z,7.60
2023-02-27T05:01:00.675Z,10.77
2023-02-27T05:03:30.788Z,6.18
2023-02-27T05:05:59.775Z,6.57
2023-02-27T05:08:29.307Z,6.93
2023-02-27T05:11:01.700Z,6.70
2023-02-27T05:13:31.792Z,11.30
2023-02-27T05:16:02.147Z,7.40
2023-02-27T05:18:29.818Z,8.15
2023-02-27T05:21:02.736Z,10.85
2023-02-27T05:23:33.286Z,6.90
2023-02-27T05:26:05.479Z,11.68
2023-02-27T05:28:36.341Z,7.30
2023-02-27T05:31:06.176Z,6.30
2023-02-27T05:33:35.588Z,7.80
2023-02-27T05:36:06.592Z,15.33
2023-02-27T05:38:37.710Z,10.40
2023-02-27T05:41:09.372Z,6.45
2023-02-27T05:43:39.856Z,6.85
2023-02-27T05:46:09.897Z,7.80
2023-02-27T05:48:39.482Z,6.87
2023-02-27T05:51:07.659Z,6.97
2023-02-27T05:53:38.293Z,10.32
2023-02-27T05:56:09.109Z,7.90
2023-02-27T05:58:43.545Z,10.45
2023-02-27T06:01:12.117Z,10.93
2023-02-27T06:03:40.979Z,9.45
2023-02-27T06:06:15.596Z,8.27
2023-02-27T06:08:43.374Z,9.45
2023-02-27T06:11:13.255Z,8.02
2023-02-27T06:13:42.072Z,10.13
2023-02-27T06:16:11.283Z,8.10
2023-02-27T06:18:38.772Z,10.93
2023-02-27T06:21:06.772Z,13.77
2023-02-27T06:23:34.365Z,9.65
2023-02-27T06:26:01.859Z,12.03
2023-02-27T06:28:30.910Z,12.88
2023-02-27T06:30:58.648Z,9.15
2023-02-27T06:33:26.947Z,13.00
2023-02-27T06:35:54.629Z,16.30
2023-02-27T06:38:22.305Z,12.07
2023-02-27T06:40:49.769Z,10.98
2023-02-27T06:43:17.389Z,16.23
2023-02-27T06:45:50.452Z,12.02
2023-02-27T06:48:21.963Z,11.43
2023-02-27T06:50:52.309Z,10.67
2023-02-27T06:53:19.881Z,12.25
2023-02-27T06:55:47.386Z,14.02
2023-02-27T06:58:15.202Z,17.55
2023-02-27T07:00:43.137Z,13.80
2023-02-27T07:03:13.410Z,14.83
2023-02-27T07:05:41.488Z,20.15
2023-02-27T07:08:09.090Z,15.15
2023-02-27T07:10:36.816Z,16.48
2023-02-27T07:13:04.609Z,16.48
2023-02-27T07:15:32.088Z,15.53
2023-02-27T07:17:59.612Z,19.08
2023-02-27T07:20:28.809Z,22.40
2023-02-27T07:22:56.986Z,14.40
2023-02-27T07:25:24.626Z,21.75
2023-02-27T07:27:52.319Z,18.40
2023-02-27T07:30:20.546Z,13.32
2023-02-27T07:32:48.301Z,17.20
2023-02-27T07:35:21.769Z,19.38
2023-02-27T07:37:50.705Z,17.67
2023-02-27T07:40:19.871Z,16.23
2023-02-27T07:42:48.340Z,21.30
2023-02-27T07:45:18.338Z,13.85
2023-02-27T07:47:46.443Z,23.77
2023-02-27T07:50:15.545Z,18.15
2023-02-27T07:52:43.372Z,22.23
2023-02-27T07:55:13.869Z,17.58
2023-02-27T07:57:41.543Z,15.57
2023-02-27T08:00:10.454Z,18.70
2023-02-27T08:02:38.266Z,17.38
2023-02-27T08:05:07.850Z,18.60
2023-02-27T08:07:36.579Z,20.23
2023-02-27T08:10:04.484Z,20.08
2023-02-27T08:12:33.606Z,18.70
2023-02-27T08:15:01.213Z,17.15
2023-02-27T08:17:29.016Z,17.90
2023-02-27T08:19:56.626Z,20.08
2023-02-27T08:22:24.202Z,18.75
2023-02-27T08:24:52.008Z,27.33
2023-02-27T08:27:22.602Z,20.98
2023-02-27T08:29:51.584Z,22.97
2023-02-27T08:32:20.392Z,26.48
2023-02-27T08:34:48.051Z,18.02
2023-02-27T08:37:15.696Z,18.55
2023-02-27T08:39:43.364Z,19.88
2023-02-27T08:42:11.040Z,22.23
2023-02-27T08:44:38.658Z,16.27
2023-02-27T08:47:07.864Z,19.08
2023-02-27T08:49:35.627Z,18.08
2023-02-27T08:52:04.020Z,20.45
2023-02-27T08:54:32.109Z,15.07
2023-02-27T08:57:02.107Z,20.02
2023-02-27T08:59:30.368Z,19.52
2023-02-27T09:02:00.227Z,17.13
2023-02-27T09:04:29.573Z,17.08
2023-02-27T09:06:57.500Z,18.00
2023-02-27T09:09:26.505Z,19.10
2023-02-27T09:11:56.766Z,13.23
2023-02-27T09:14:24.358Z,15.70
2023-02-27T09:16:52.047Z,15.48
2023-02-27T09:19:19.708Z,15.03
2023-02-27T09:21:48.558Z,12.68
2023-02-27T09:24:20.322Z,17.17
2023-02-27T09:26:49.218Z,14.82
2023-02-27T09:29:17.387Z,13.13
2023-02-27T09:31:45.090Z,13.80
2023-02-27T09:34:12.723Z,12.70
2023-02-27T09:36:40.338Z,13.52
2023-02-27T09:39:10.020Z,15.35
2023-02-27T09:41:41.365Z,12.45
2023-02-27T09:44:16.166Z,12.17
2023-02-27T09:46:44.989Z,15.57
2023-02-27T09:49:16.066Z,13.75
2023-02-27T09:51:45.451Z,12.88
2023-02-27T09:54:15.085Z,12.93
2023-02-27T09:56:46.044Z,14.90
2023-02-27T09:59:17.416Z,11.27
2023-02-27T10:01:48.098Z,12.32
2023-02-27T10:04:29.634Z,14.40
2023-02-27T10:06:59.741Z,15.75
2023-02-27T10:09:36.112Z,13.10
2023-02-27T10:12:15.725Z,13.43
2023-02-27T10:14:44.975Z,12.07
2023-02-27T10:17:18.983Z,12.68
2023-02-27T10:19:48.031Z,11.20
2023-02-27T10:22:18.795Z,11.10
2023-02-27T10:24:48.603Z,11.85
2023-02-27T10:27:20.927Z,8.82
2023-02-27T10:29:49.103Z,8.65
2023-02-27T10:32:22.432Z,8.70
2023-02-27T10:34:52.649Z,8.67
2023-02-27T10:37:22.005Z,8.65
2023-02-27T10:39:53.132Z,10.55
2023-02-27T10:42:21.363Z,10.35
2023-02-27T10:44:53.657Z,8.63
2023-02-27T10:47:22.785Z,10.17
2023-02-27T10:49:51.464Z,8.25
2023-02-27T10:52:19.184Z,8.52
2023-02-27T10:54:47.277Z,8.27
2023-02-27T10:57:22.062Z,7.03
2023-02-27T10:59:53.934Z,8.90
2023-02-27T11:02:23.347Z,7.43
2023-02-27T11:04:54.293Z,7.18
2023-02-27T11:07:29.762Z,7.93
2023-02-27T11:10:01.085Z,6.63
2023-02-27T11:12:30.740Z,6.77
2023-02-27T11:14:58.830Z,5.50
2023-02-27T11:17:28.926Z,5.03
2023-02-27T11:20:02.021Z,4.38
2023-02-27T11:22:31.178Z,4.80
2023-02-27T11:25:17.604Z,4.43
2023-02-27T11:27:47.591Z,5.75
2023-02-27T11:30:23.173Z,6.53
2023-02-27T11:32:51.325Z,7.47
2023-02-27T11:35:21.263Z,6.45
2023-02-27T11:37:50.479Z,7.53
2023-02-27T11:40:22.833Z,5.78
2023-02-27T11:42:53.150Z,6.22
2023-02-27T11:46:04.618Z,4.97
2023-02-27T11:48:24.666Z,8.82
2023-02-27T11:50:59.604Z,7.93
2023-02-27T11:53:40.197Z,8.27
2023-02-27T11:56:15.782Z,4.95
2023-02-27T11:58:49.441Z,7.00
2023-02-27T12:01:21.824Z,5.78
2023-02-27T12:03:52.496Z,6.77
2023-02-27T12:06:21.252Z,6.10
2023-02-27T12:08:51.815Z,7.38
2023-02-27T12:11:22.736Z,6.35
2023-02-27T12:13:54.169Z,6.25
2023-02-27T12:16:23.555Z,4.77
2023-02-27T12:18:54.044Z,4.85
2023-02-27T12:21:23.262Z,6.90
2023-02-27T12:23:52.633Z,5.78
2023-02-27T12:26:24.036Z,5.80
2023-02-27T12:28:57.147Z,5.03
2023-02-27T12:31:33.078Z,7.75
2023-02-27T12:34:03.575Z,8.18
2023-02-27T12:36:31.506Z,6.45
2023-02-27T12:38:59.032Z,4.82
2023-02-27T12:41:36.998Z,4.53
2023-02-27T12:44:12.504Z,5.80
2023-02-27T12:46:44.994Z,7.20
2023-02-27T12:49:20.396Z,6.72
2023-02-27T12:51:51.640Z,5.97
2023-02-27T12:54:25.039Z,6.47
2023-02-27T12:56:58.681Z,4.13
2023-02-27T12:59:49.555Z,5.55
2023-02-27T13:02:32.140Z,4.07
2023-02-27T13:05:04.037Z,4.97
2023-02-27T13:07:34.763Z,5.60
2023-02-27T13:10:05.710Z,5.32
2023-02-27T13:12:35.656Z,6.40
2023-02-27T13:15:11.009Z,5.15
2023-02-27T13:17:40.681Z,5.47
2023-02-27T13:20:23.574Z,5.10
2023-02-27T13:22:55.655Z,6.85
2023-02-27T13:25:24.642Z,5.50
2023-02-27T13:27:55.516Z,8.10
2023-02-27T13:30:27.003Z,7.70
2023-02-27T13:32:58.761Z,6.43
2023-02-27T13:35:30.678Z,6.00
2023-02-27T13:38:01.535Z,8.75
2023-02-27T13:40:29.890Z,6.88
2023-02-27T13:42:58.834Z,6.25
2023-02-27T13:45:45.073Z,6.03
2023-02-27T13:48:36.134Z,4.28
2023-02-27T13:51:05.356Z,4.78
2023-02-27T13:53:33.060Z,5.13
2023-02-27T13:56:17.278Z,3.83
2023-02-27T13:58:44.918Z,7.20
2023-02-27T14:01:16.792Z,3.55
2023-02-27T14:03:54.103Z,4.30
2023-02-27T14:06:24.371Z,5.88
2023-02-27T14:08:55.680Z,6.13
2023-02-27T14:11:29.121Z,4.60
2023-02-27T14:14:01.456Z,4.57
2023-02-27T14:16:56.678Z,4.07
2023-02-27T14:19:45.145Z,5.70
2023-02-27T14:22:44.018Z,4.65
2023-02-27T14:25:18.358Z,4.77
2023-02-27T14:27:49.071Z,5.55
2023-02-27T14:30:34.074Z,6.40
2023-02-27T14:33:06.608Z,6.45
2023-02-27T14:35:35.480Z,4.38
2023-02-27T14:38:09.308Z,5.23
2023-02-27T14:40:41.532Z,7.28
2023-02-27T14:43:14.773Z,3.92
2023-02-27T14:45:42.358Z,6.85
2023-02-27T14:48:17.514Z,5.53
2023-02-27T14:50:45.061Z,4.87
2023-02-27T14:53:24.501Z,5.07
2023-02-27T14:55:57.487Z,7.38
2023-02-27T14:58:25.845Z,4.60
2023-02-27T15:00:59.572Z,4.30
2023-02-27T15:03:28.844Z,6.10
2023-02-27T15:06:01.082Z,6.80
2023-02-27T15:08:32.321Z,9.15
2023-02-27T15:11:02.307Z,5.00
2023-02-27T15:13:32.044Z,4.88
2023-02-27T15:16:18.262Z,6.40
2023-02-27T15:18:48.481Z,5.20
2023-02-27T15:21:16.390Z,5.72
2023-02-27T15:23:44.043Z,4.60
2023-02-27T15:26:14.058Z,3.80
2023-02-27T15:28:41.809Z,4.27
2023-02-27T15:31:11.160Z,5.20
2023-02-27T15:33:39.074Z,5.55
2023-02-27T15:36:07.021Z,4.47
2023-02-27T15:38:35.515Z,4.20
2023-02-27T15:41:04.364Z,3.90
2023-02-27T15:43:34.401Z,3.35
2023-02-27T15:46:02.453Z,3.70
2023-02-27T15:48:30.649Z,3.78
2023-02-27T15:50:59.397Z,3.83
2023-02-27T15:53:27.889Z,3.70
2023-02-27T15:55:56.922Z,7.70
2023-02-27T15:58:25.879Z,6.75
2023-02-27T16:01:00.788Z,4.38
2023-02-27T16:03:33.164Z,5.25
2023-02-27T16:06:01.313Z,5.13
2023-02-27T16:08:32.882Z,6.85
2023-02-27T16:11:01.341Z,5.35
2023-02-27T16:13:38.300Z,9.48
2023-02-27T16:16:08.581Z,6.53
2023-02-27T16:18:37.639Z,6.10
2023-02-27T16:21:12.905Z,7.25
2023-02-27T16:23:40.499Z,7.18
2023-02-27T16:26:19.216Z,7.35
2023-02-27T16:28:51.589Z,6.95
2023-02-27T16:31:23.981Z,5.77
2023-02-27T16:33:52.062Z,6.22
2023-02-27T16:36:20.344Z,5.05
2023-02-27T16:38:53.378Z,4.60
2023-02-27T16:41:22.287Z,5.97
2023-02-27T16:43:50.694Z,7.60
2023-02-27T16:46:21.055Z,6.95
2023-02-27T16:48:54.542Z,6.30
2023-02-27T16:51:23.882Z,6.82
2023-02-27T16:53:52.441Z,4.75
2023-02-27T16:56:32.289Z,6.37
2023-02-27T16:59:13.502Z,5.53
2023-02-27T17:01:41.097Z,6.20
2023-02-27T17:04:24.646Z,4.00
2023-02-27T17:06:53.412Z,3.70
2023-02-27T17:09:21.021Z,4.00
2023-02-27T17:11:49.092Z,5.20
2023-02-27T17:14:17.108Z,4.22
2023-02-27T17:16:47.555Z,4.22
2023-02-27T17:19:17.084Z,5.28
2023-02-27T17:21:44.704Z,4.20
2023-02-27T17:24:12.375Z,4.80
2023-02-27T17:26:39.920Z,5.82
2023-02-27T17:29:08.728Z,4.65
2023-02-27T17:31:36.347Z,3.42
2023-02-27T17:34:04.785Z,4.33
2023-02-27T17:36:33.804Z,7.97
2023-02-27T17:39:02.038Z,5.70
2023-02-27T17:41:32.680Z,7.18
2023-02-27T17:44:01.894Z,8.40
2023-02-27T17:46:30.855Z,7.57
2023-02-27T17:49:00.768Z,5.88
2023-02-27T17:51:29.067Z,5.30
2023-02-27T17:54:00.116Z,3.80
2023-02-27T17:56:28.694Z,6.72
2023-02-27T17:58:57.674Z,6.53
2023-02-27T18:01:26.958Z,4.00
2023-02-27T18:03:58.623Z,3.55
2023-02-27T18:06:26.765Z,4.38
2023-02-27T18:08:54.589Z,2.45
2023-02-27T18:11:23.645Z,1.93
2023-02-27T18:13:51.522Z,3.55
2023-02-27T18:16:19.407Z,2.67
2023-02-27T18:18:46.972Z,3.33
2023-02-27T18:21:15.945Z,3.70
2023-02-27T18:23:44.315Z,8.77
2023-02-27T18:26:27.219Z,4.05
2023-02-27T18:29:07.700Z,2.90
2023-02-27T18:31:36.243Z,6.53
2023-02-27T18:34:04.281Z,5.38
2023-02-27T18:36:32.388Z,5.57
2023-02-27T18:39:00.640Z,6.93
2023-02-27T18:41:29.193Z,6.82
2023-02-27T18:43:56.756Z,5.53
2023-02-27T18:46:25.840Z,5.13
2023-02-27T18:48:54.078Z,6.30
2023-02-27T18:51:22.085Z,4.75
2023-02-27T18:53:50.457Z,6.03
2023-02-27T18:56:19.242Z,6.75
2023-02-27T18:58:57.128Z,6.40
2023-02-27T19:01:27.354Z,4.90
2023-02-27T19:04:00.445Z,5.05
2023-02-27T19:06:28.581Z,4.45
2023-02-27T19:08:56.402Z,6.50
2023-02-27T19:11:24.383Z,5.95
2023-02-27T19:13:52.549Z,6.47
2023-02-27T19:16:22.082Z,5.75
2023-02-27T19:18:51.097Z,5.90
2023-02-27T19:21:18.796Z,4.53
2023-02-27T19:23:46.676Z,5.03
2023-02-27T19:26:14.512Z,6.17
2023-02-27T19:28:42.233Z,4.53
2023-02-27T19:31:10.858Z,5.22
2023-02-27T19:33:38.535Z,4.50
2023-02-27T19:36:09.110Z,4.65
2023-02-27T19:38:37.870Z,5.23
2023-02-27T19:41:06.470Z,5.07
2023-02-27T19:43:37.820Z,4.25
2023-02-27T19:46:05.646Z,4.90
2023-02-27T19:48:33.701Z,6.80
2023-02-27T19:51:02.636Z,9.30
2023-02-27T19:53:31.718Z,6.53
2023-02-27T19:55:59.950Z,11.07
2023-02-27T19:58:27.568Z,5.60
2023-02-27T20:00:56.044Z,4.55
2023-02-27T20:03:23.783Z,5.20
2023-02-27T20:05:51.320Z,7.35
2023-02-27T20:08:18.928Z,5.85
2023-02-27T20:10:55.926Z,4.65
2023-02-27T20:13:23.681Z,6.72
2023-02-27T20:15:58.061Z,9.03
2023-02-27T20:18:32.352Z,6.38
2023-02-27T20:21:00.969Z,6.82
2023-02-27T20:23:28.782Z,9.88
2023-02-27T20:25:58.004Z,6.65
2023-02-27T20:28:25.796Z,8.10
2023-02-27T20:30:53.512Z,5.72
2023-02-27T20:33:21.437Z,4.00
2023-02-27T20:35:49.168Z,3.53
2023-02-27T20:38:19.867Z,6.05
2023-02-27T20:40:47.480Z,6.70
2023-02-27T20:43:16.832Z,5.03
2023-02-27T20:45:44.474Z,5.25
2023-02-27T20:48:12.089Z,8.50
2023-02-27T20:50:39.744Z,10.02
2023-02-27T20:53:08.801Z,5.87
2023-02-27T20:55:41.625Z,5.63
2023-02-27T20:58:10.187Z,5.93
2023-02-27T21:00:39.211Z,8.00
2023-02-27T21:03:06.927Z,9.23
2023-02-27T21:05:34.748Z,7.70
2023-02-27T21:08:02.388Z,5.78
2023-02-27T21:10:30.149Z,9.60
2023-02-27T21:12:57.682Z,5.70
2023-02-27T21:15:25.362Z,9.63
2023-02-27T21:17:54.758Z,11.10
2023-02-27T21:20:22.337Z,8.77
2023-02-27T21:22:49.996Z,5.72
2023-02-27T21:25:17.762Z,6.00
2023-02-27T21:27:45.412Z,5.70
2023-02-27T21:30:13.253Z,12.00
2023-02-27T21:32:40.902Z,6.55
2023-02-27T21:35:10.500Z,5.15
2023-02-27T21:37:38.259Z,4.57
2023-02-27T21:40:06.480Z,5.68
2023-02-27T21:42:34.200Z,7.70
2023-02-27T21:45:01.943Z,6.28
2023-02-27T21:47:29.874Z,7.85
2023-02-27T21:50:02.947Z,7.97
2023-02-27T21:52:33.812Z,6.05
2023-02-27T21:55:01.340Z,5.83
2023-02-27T21:57:28.913Z,10.93
2023-02-27T21:59:56.570Z,7.10
2023-02-27T22:02:24.118Z,7.68
2023-02-27T22:04:51.691Z,7.75
2023-02-27T22:07:20.099Z,8.40
2023-02-27T22:09:49.855Z,6.65
2023-02-27T22:12:17.872Z,10.00
2023-02-27T22:14:45.698Z,8.32
2023-02-27T22:17:13.197Z,9.13
2023-02-27T22:19:40.954Z,4.40
2023-02-27T22:22:09.091Z,6.95
2023-02-27T22:24:36.621Z,7.05
2023-02-27T22:27:05.532Z,8.00
2023-02-27T22:29:33.370Z,7.18
2023-02-27T22:32:01.069Z,5.50
2023-02-27T22:34:28.840Z,7.85
2023-02-27T22:36:56.867Z,6.10
2023-02-27T22:39:24.552Z,5.60
2023-02-27T22:41:52.347Z,7.72
2023-02-27T22:44:21.437Z,9.30
2023-02-27T22:46:54.705Z,10.88
2023-02-27T22:49:23.227Z,5.78
2023-02-27T22:51:51.912Z,7.05
2023-02-27T22:54:21.103Z,5.80
2023-02-27T22:56:50.235Z,10.10
2023-02-27T22:59:19.732Z,10.35
2023-02-27T23:01:49.167Z,9.30
2023-02-27T23:04:18.006Z,7.60
2023-02-27T23:06:45.973Z,10.68
2023-02-27T23:09:15.368Z,9.70
2023-02-27T23:11:43.570Z,12.00
2023-02-27T23:14:13.174Z,6.82
2023-02-27T23:16:45.632Z,10.95
2023-02-27T23:19:15.926Z,8.98
2023-02-27T23:21:43.524Z,10.73
2023-02-27T23:24:14.306Z,8.23
2023-02-27T23:26:42.717Z,6.88
2023-02-27T23:29:10.978Z,8.20
2023-02-27T23:31:39.070Z,10.18
2023-02-27T23:34:06.822Z,9.43
2023-02-27T23:36:36.756Z,10.13
2023-02-27T23:39:04.959Z,10.38
2023-02-27T23:41:33.377Z,9.50
2023-02-27T23:44:01.865Z,9.55
2023-02-27T23:46:30.736Z,9.57
2023-02-27T23:48:59.002Z,11.65
2023-02-27T23:51:29.013Z,9.57
2023-02-27T23:54:00.873Z,11.50
2023-02-27T23:56:29.705Z,8.98
2023-02-27T23:58:57.934Z,13.63
